Time;durP1;ratioP1;P1;durP2;ratioP2;P2;SDS_P1;SDS_P2;PMS_P1;PMS_P2;Temp;Humidity;BMP_temperature;BMP_pressure;BME280_temperature;BME280_humidity;BME280_pressure;Samples;Min_cycle;Max_cycle;Signal;HPM_P1;HPM_P2
2021/01/17 00:35:33;;;;;;;2.33;2.17;;;2.60;99.90;;;;;;5112700;27;20533;-82
2021/01/17 00:38:00;;;;;;;3.83;3.53;;;2.70;99.90;;;;;;5110571;28;20583;-82
2021/01/17 00:40:27;;;;;;;4.03;2.40;;;2.70;99.90;;;;;;5110617;28;20180;-82
2021/01/17 00:42:54;;;;;;;4.53;2.73;;;2.70;99.90;;;;;;5110641;28;20186;-80
2021/01/17 00:45:21;;;;;;;3.40;3.17;;;2.80;99.90;;;;;;5093841;28;20198;-80
2021/01/17 00:47:49;;;;;;;3.83;2.87;;;2.80;99.90;;;;;;5091805;28;20198;-79
2021/01/17 00:50:17;;;;;;;4.43;2.43;;;2.80;99.90;;;;;;5090366;28;20208;-80
2021/01/17 00:52:44;;;;;;;3.33;2.67;;;2.80;99.90;;;;;;5098696;28;20339;-80
2021/01/17 00:55:10;;;;;;;5.43;2.97;;;2.80;99.90;;;;;;5110332;28;20245;-80
2021/01/17 00:57:36;;;;;;;4.43;3.37;;;2.80;99.90;;;;;;5105128;28;20210;-80
2021/01/17 01:00:06;;;;;;;3.37;2.70;;;2.90;99.90;;;;;;5090064;28;20175;-80
2021/01/17 01:02:31;;;;;;;2.70;2.23;;;2.80;99.90;;;;;;5090009;28;20257;-80
2021/01/17 01:04:57;;;;;;;1.93;1.77;;;2.90;99.90;;;;;;5107466;28;20345;-80
2021/01/17 01:07:26;;;;;;;2.40;2.10;;;2.90;99.90;;;;;;5097614;28;20227;-80
2021/01/17 01:09:51;;;;;;;3.30;3.00;;;2.90;99.90;;;;;;5090148;28;20174;-80
2021/01/17 01:12:17;;;;;;;3.17;2.30;;;2.90;99.90;;;;;;5101162;28;20204;-80
2021/01/17 01:14:42;;;;;;;3.93;2.97;;;2.90;99.90;;;;;;5084397;28;20239;-80
2021/01/17 01:17:08;;;;;;;3.10;1.93;;;2.80;99.90;;;;;;5091355;28;20186;-80
2021/01/17 01:19:33;;;;;;;6.47;3.43;;;2.80;99.90;;;;;;5090152;28;20634;-80
2021/01/17 01:22:02;;;;;;;2.30;2.10;;;2.70;99.90;;;;;;5089921;28;20631;-80
2021/01/17 01:24:30;;;;;;;2.80;2.47;;;2.70;99.90;;;;;;5090021;28;20192;-80
2021/01/17 01:26:55;;;;;;;7.43;3.93;;;2.70;99.90;;;;;;5089933;28;20265;-80
2021/01/17 01:29:21;;;;;;;2.97;2.63;;;2.70;99.90;;;;;;5097430;28;20684;-80
2021/01/17 01:31:47;;;;;;;3.90;3.43;;;2.70;99.90;;;;;;5091235;28;20188;-80
2021/01/17 01:34:12;;;;;;;5.43;3.67;;;2.70;99.90;;;;;;5089915;28;20340;-80
2021/01/17 01:36:40;;;;;;;6.10;3.27;;;2.80;99.90;;;;;;5089956;28;20262;-80
2021/01/17 01:39:07;;;;;;;3.80;2.70;;;2.80;99.90;;;;;;5089778;28;20173;-80
2021/01/17 01:41:37;;;;;;;13.20;3.27;;;2.80;99.90;;;;;;5092263;28;20183;-80
2021/01/17 01:44:03;;;;;;;5.00;2.23;;;2.80;99.90;;;;;;5110311;28;20205;-80
2021/01/17 01:46:30;;;;;;;3.17;2.87;;;2.80;99.90;;;;;;5099002;28;20211;-80
2021/01/17 01:48:56;;;;;;;5.50;2.93;;;2.80;99.90;;;;;;5096823;28;20647;-80
2021/01/17 01:51:26;;;;;;;5.07;2.80;;;2.80;99.90;;;;;;5096781;28;20174;-80
2021/01/17 01:53:53;;;;;;;4.93;3.30;;;2.90;99.90;;;;;;5086462;28;20193;-80
2021/01/17 01:56:19;;;;;;;3.37;3.03;;;2.90;99.90;;;;;;5073281;28;20187;-80
2021/01/17 01:58:46;;;;;;;4.53;3.50;;;2.90;99.90;;;;;;5092969;28;20731;-80
2021/01/17 02:01:11;;;;;;;4.67;3.30;;;2.90;99.90;;;;;;5096698;28;20200;-80
2021/01/17 02:03:37;;;;;;;4.93;3.57;;;2.90;99.90;;;;;;5096525;28;21886;-80
2021/01/17 02:06:11;;;;;;;2.70;2.30;;;2.90;99.90;;;;;;5096232;28;20170;-80
2021/01/17 02:08:55;;;;;;;4.03;2.93;;;2.90;99.90;;;;;;5096926;28;20141;-80
2021/01/17 02:11:35;;;;;;;4.00;2.67;;;3.00;99.90;;;;;;5075844;28;20205;-80
2021/01/17 02:14:20;;;;;;;4.90;3.73;;;2.90;99.90;;;;;;5078338;28;20262;-80
2021/01/17 02:16:47;;;;;;;4.03;2.53;;;2.90;99.90;;;;;;5074762;28;20171;-80
2021/01/17 02:19:15;;;;;;;5.77;3.03;;;2.90;99.90;;;;;;5086650;28;20257;-80
2021/01/17 02:21:47;;;;;;;4.63;3.37;;;2.90;99.90;;;;;;5095283;28;20177;-80
2021/01/17 02:24:19;;;;;;;4.20;3.20;;;2.90;99.90;;;;;;5095181;28;20201;-80
2021/01/17 02:26:45;;;;;;;5.60;3.50;;;2.90;99.90;;;;;;5095115;28;20247;-80
2021/01/17 02:29:11;;;;;;;6.40;4.00;;;3.00;99.90;;;;;;5075043;28;20203;-80
2021/01/17 02:31:40;;;;;;;4.93;3.40;;;2.90;99.90;;;;;;5094763;28;20230;-80
2021/01/17 02:34:08;;;;;;;4.13;3.47;;;2.90;99.90;;;;;;5079011;28;20261;-80
2021/01/17 02:36:49;;;;;;;9.57;3.70;;;2.90;99.90;;;;;;5075073;28;20713;-80
2021/01/17 02:39:22;;;;;;;6.67;4.13;;;2.90;99.90;;;;;;5082349;28;20654;-80
2021/01/17 02:41:53;;;;;;;6.27;3.83;;;2.90;99.90;;;;;;5096458;28;20248;-80
2021/01/17 02:44:20;;;;;;;6.83;3.30;;;3.00;99.90;;;;;;5086836;28;20206;-80
2021/01/17 02:46:46;;;;;;;3.93;3.13;;;2.90;99.90;;;;;;5074772;28;20254;-80
2021/01/17 02:49:11;;;;;;;3.47;2.50;;;2.80;99.90;;;;;;5074684;28;20171;-80
2021/01/17 02:51:37;;;;;;;4.83;3.07;;;2.90;99.90;;;;;;5075976;28;20235;-80
2021/01/17 02:54:09;;;;;;;4.87;4.20;;;2.90;99.90;;;;;;5074484;28;20245;-80
2021/01/17 02:56:41;;;;;;;4.10;3.73;;;2.90;99.90;;;;;;5074265;28;20169;-80
2021/01/17 02:59:11;;;;;;;4.73;4.13;;;2.90;99.90;;;;;;5067463;28;20203;-80
2021/01/17 03:01:38;;;;;;;8.70;4.80;;;2.90;99.90;;;;;;5076171;28;20254;-80
2021/01/17 03:04:19;;;;;;;3.70;3.03;;;2.90;99.90;;;;;;5074512;28;20218;-80
2021/01/17 03:06:46;;;;;;;4.37;3.07;;;3.00;99.90;;;;;;5074663;28;20157;-81
2021/01/17 03:09:12;;;;;;;6.50;3.50;;;3.00;99.90;;;;;;5089382;28;20170;-80
2021/01/17 03:11:38;;;;;;;4.60;2.60;;;3.10;99.90;;;;;;5089685;28;20670;-80
2021/01/17 03:14:06;;;;;;;4.43;2.30;;;3.00;99.90;;;;;;5074396;28;20281;-80
2021/01/17 03:16:33;;;;;;;7.53;4.57;;;3.10;99.90;;;;;;5074482;28;20180;-81
2021/01/17 03:18:59;;;;;;;4.27;3.30;;;3.10;99.90;;;;;;5058253;28;20657;-80
2021/01/17 03:21:25;;;;;;;4.67;4.23;;;3.10;99.90;;;;;;5074604;28;20182;-80
2021/01/17 03:23:50;;;;;;;3.57;2.67;;;3.10;99.90;;;;;;5073992;28;20206;-80
2021/01/17 03:26:16;;;;;;;3.77;3.40;;;3.10;99.90;;;;;;5088494;28;20656;-80
2021/01/17 03:28:42;;;;;;;4.03;3.47;;;3.00;99.90;;;;;;5089765;28;20230;-80
2021/01/17 03:31:08;;;;;;;5.73;4.00;;;3.00;99.90;;;;;;5074433;28;20255;-80
2021/01/17 03:33:34;;;;;;;8.10;3.50;;;3.10;99.90;;;;;;5075586;28;20193;-81
2021/01/17 03:35:59;;;;;;;4.40;3.20;;;3.00;99.90;;;;;;5093105;28;20240;-80
2021/01/17 03:38:25;;;;;;;8.17;3.53;;;3.10;99.90;;;;;;5094797;28;20180;-80
2021/01/17 03:40:50;;;;;;;3.97;3.10;;;3.10;99.90;;;;;;5094800;28;20300;-80
2021/01/17 03:43:16;;;;;;;3.73;2.50;;;3.10;99.90;;;;;;5085705;28;20268;-80
2021/01/17 03:45:41;;;;;;;5.70;3.20;;;3.00;99.90;;;;;;5092651;28;20216;-80
2021/01/17 03:48:07;;;;;;;9.20;3.40;;;3.00;99.90;;;;;;5075365;28;20174;-80
2021/01/17 03:50:32;;;;;;;4.30;3.90;;;3.00;99.90;;;;;;5073381;28;20177;-80
2021/01/17 03:52:58;;;;;;;3.90;3.23;;;3.00;99.90;;;;;;5073955;28;20507;-80
2021/01/17 03:55:23;;;;;;;4.23;3.43;;;3.00;99.90;;;;;;5065662;28;20674;-80
2021/01/17 03:57:49;;;;;;;5.50;4.30;;;3.00;99.90;;;;;;5074680;28;20179;-80
2021/01/17 04:00:15;;;;;;;5.63;4.53;;;3.00;99.90;;;;;;5073273;28;20638;-80
2021/01/17 04:02:40;;;;;;;5.17;3.33;;;3.00;99.90;;;;;;5073084;28;20693;-80
2021/01/17 04:05:07;;;;;;;4.10;3.70;;;3.00;99.90;;;;;;5083538;28;20206;-81
2021/01/17 04:07:32;;;;;;;3.70;3.13;;;3.00;99.90;;;;;;5090567;28;20315;-80
2021/01/17 04:09:58;;;;;;;3.90;3.50;;;3.00;99.90;;;;;;5077583;28;20254;-80
2021/01/17 04:12:23;;;;;;;3.80;3.17;;;3.00;99.90;;;;;;5093446;28;20640;-80
2021/01/17 04:14:49;;;;;;;5.50;3.73;;;2.90;99.90;;;;;;5081255;28;20289;-80
2021/01/17 04:17:14;;;;;;;5.50;3.70;;;2.90;99.90;;;;;;5073117;28;20180;-81
2021/01/17 04:19:40;;;;;;;4.40;3.17;;;2.90;99.90;;;;;;5064614;28;20178;-81
2021/01/17 04:22:05;;;;;;;7.27;4.67;;;2.90;99.90;;;;;;5053143;28;20512;-80
2021/01/17 04:24:31;;;;;;;5.13;3.70;;;3.00;99.90;;;;;;5052931;28;20548;-80
2021/01/17 04:26:58;;;;;;;4.67;3.87;;;3.00;99.90;;;;;;5054521;28;20501;-80
2021/01/17 04:29:24;;;;;;;5.40;4.50;;;3.00;99.90;;;;;;5057743;28;20187;-80
2021/01/17 04:31:50;;;;;;;9.80;4.17;;;2.90;99.90;;;;;;5053169;28;20608;-80
2021/01/17 04:34:15;;;;;;;5.97;4.37;;;2.90;99.90;;;;;;5065463;28;20746;-80
2021/01/17 04:36:48;;;;;;;8.10;4.87;;;3.00;99.90;;;;;;5054552;28;20253;-80
2021/01/17 04:39:14;;;;;;;4.17;3.77;;;3.00;99.90;;;;;;5053292;28;20207;-80
2021/01/17 04:41:44;;;;;;;6.10;4.30;;;3.00;99.90;;;;;;5060532;28;20189;-80
2021/01/17 04:44:11;;;;;;;8.60;4.27;;;3.00;99.90;;;;;;5053000;28;20208;-80
2021/01/17 04:46:39;;;;;;;7.50;3.63;;;3.00;99.90;;;;;;5054796;28;20625;-80
2021/01/17 04:49:06;;;;;;;5.57;3.53;;;3.00;99.90;;;;;;5053002;28;20632;-80
2021/01/17 04:51:32;;;;;;;7.53;3.67;;;2.90;99.90;;;;;;5066116;28;20177;-80
2021/01/17 04:53:59;;;;;;;3.20;2.90;;;2.80;99.90;;;;;;5054631;28;20611;-80
2021/01/17 04:56:27;;;;;;;5.87;3.87;;;2.90;99.90;;;;;;5062030;28;20260;-80
2021/01/17 04:59:09;;;;;;;6.40;4.13;;;2.90;99.90;;;;;;5062036;28;20230;-80
2021/01/17 05:01:46;;;;;;;4.57;4.13;;;2.80;99.90;;;;;;5073233;28;20519;-80
2021/01/17 05:04:36;;;;;;;2.57;2.37;;;2.80;99.90;;;;;;5054614;28;20195;-80
2021/01/17 05:07:17;;;;;;;8.70;4.27;;;2.80;99.90;;;;;;5051497;28;20184;-81
2021/01/17 05:09:55;;;;;;;3.83;2.83;;;2.90;99.90;;;;;;5053009;28;20153;-80
2021/01/17 05:12:28;;;;;;;5.57;3.40;;;2.90;99.90;;;;;;5051355;28;20160;-80
2021/01/17 05:14:55;;;;;;;7.23;4.30;;;2.90;99.90;;;;;;5053715;28;20688;-81
2021/01/17 05:17:22;;;;;;;6.40;3.13;;;2.90;99.90;;;;;;5053918;28;20220;-81
2021/01/17 05:19:48;;;;;;;7.50;3.67;;;2.90;99.90;;;;;;5053551;28;20182;-80
2021/01/17 05:22:14;;;;;;;6.20;4.67;;;2.90;99.90;;;;;;5058670;28;20522;-81
2021/01/17 05:24:44;;;;;;;5.13;4.23;;;3.00;99.90;;;;;;5057871;28;20231;-80
2021/01/17 05:27:10;;;;;;;5.83;3.67;;;3.00;99.90;;;;;;5057372;28;20161;-80
2021/01/17 05:29:35;;;;;;;8.60;4.10;;;3.00;99.90;;;;;;5056030;28;20244;-80
2021/01/17 05:32:04;;;;;;;5.47;3.60;;;2.90;99.90;;;;;;5057454;28;20198;-80
2021/01/17 05:34:30;;;;;;;4.73;3.40;;;2.90;99.90;;;;;;5073972;28;20212;-80
2021/01/17 05:37:03;;;;;;;6.43;4.83;;;3.00;99.90;;;;;;5083458;28;20186;-79
2021/01/17 05:39:29;;;;;;;7.03;3.33;;;2.90;99.90;;;;;;5081344;22;20297;-83
2021/01/17 05:42:05;;;;;;;8.27;3.93;;;2.90;99.90;;;;;;5067281;28;20180;-81
2021/01/17 05:44:31;;;;;;;4.97;3.97;;;3.00;99.90;;;;;;5079801;28;20206;-83
2021/01/17 05:47:05;;;;;;;6.10;4.97;;;3.00;99.90;;;;;;5095858;28;20218;-83
2021/01/17 05:49:31;;;;;;;3.57;3.20;;;3.00;99.90;;;;;;5087136;28;20177;-84
2021/01/17 05:52:10;;;;;;;9.63;4.57;;;3.00;99.90;;;;;;5094857;28;20189;-85
2021/01/17 05:54:37;;;;;;;5.83;4.43;;;3.00;99.90;;;;;;5088866;28;20194;-85
2021/01/17 05:57:16;;;;;;;4.33;3.90;;;3.00;99.90;;;;;;5084225;28;20651;-86
2021/01/17 05:59:42;;;;;;;7.87;4.60;;;3.00;99.90;;;;;;5086946;28;20171;-85
2021/01/17 06:02:16;;;;;;;6.40;3.87;;;3.00;99.90;;;;;;5093497;28;20704;-84
2021/01/17 06:04:45;;;;;;;11.73;4.67;;;3.10;99.90;;;;;;5082887;28;20200;-84
2021/01/17 06:07:13;;;;;;;6.23;4.70;;;3.10;99.90;;;;;;5090883;28;20209;-84
2021/01/17 06:09:39;;;;;;;4.90;3.83;;;3.10;99.90;;;;;;5090795;28;20268;-85
2021/01/17 06:12:06;;;;;;;6.70;4.70;;;3.10;99.90;;;;;;5091844;28;20273;-83
2021/01/17 06:14:31;;;;;;;5.47;4.87;;;3.10;99.90;;;;;;5074214;28;20230;-83
2021/01/17 06:17:03;;;;;;;7.13;5.23;;;3.10;99.90;;;;;;5090868;28;20174;-83
2021/01/17 06:19:35;;;;;;;5.73;5.00;;;3.10;99.90;;;;;;5092628;28;20196;-83
2021/01/17 06:22:11;;;;;;;6.17;4.77;;;3.20;99.90;;;;;;5078352;28;20172;-82
2021/01/17 06:24:41;;;;;;;6.90;4.50;;;3.20;99.90;;;;;;5080708;28;20291;-81
2021/01/17 06:27:08;;;;;;;7.07;5.17;;;3.20;99.90;;;;;;5095567;28;20292;-85
2021/01/17 06:29:40;;;;;;;7.70;4.97;;;3.20;99.90;;;;;;5096656;28;20177;-83
2021/01/17 06:32:17;;;;;;;6.87;5.30;;;3.20;99.90;;;;;;5089440;28;20178;-84
2021/01/17 06:34:55;;;;;;;6.97;5.53;;;3.20;99.90;;;;;;5094705;28;20199;-83
2021/01/17 06:37:22;;;;;;;6.60;5.73;;;3.30;99.90;;;;;;5076516;28;20216;-83
2021/01/17 06:39:58;;;;;;;7.47;4.13;;;3.30;99.90;;;;;;5075711;28;20718;-83
2021/01/17 06:42:25;;;;;;;14.10;4.93;;;3.30;99.90;;;;;;5077071;28;20143;-84
2021/01/17 06:44:52;;;;;;;11.00;4.67;;;3.30;99.90;;;;;;5075237;28;20697;-84
2021/01/17 06:47:21;;;;;;;8.30;4.60;;;3.40;99.90;;;;;;5075336;28;20209;-83
2021/01/17 06:49:47;;;;;;;9.23;5.80;;;3.30;99.90;;;;;;5075357;28;20208;-84
2021/01/17 06:52:14;;;;;;;7.10;4.47;;;3.30;99.90;;;;;;5087807;28;20173;-84
2021/01/17 06:54:40;;;;;;;6.30;4.70;;;3.30;99.90;;;;;;5075949;28;20192;-86
2021/01/17 06:57:06;;;;;;;11.93;5.27;;;3.30;99.90;;;;;;5091723;28;20212;-84
2021/01/17 06:59:40;;;;;;;7.87;3.77;;;3.30;99.90;;;;;;5092039;28;20175;-84
2021/01/17 07:02:12;;;;;;;7.17;4.00;;;3.30;99.90;;;;;;5091900;28;20199;-83
2021/01/17 07:04:41;;;;;;;5.47;4.00;;;3.30;99.90;;;;;;5091586;28;20232;-84
2021/01/17 07:07:27;;;;;;;11.47;5.57;;;3.30;99.90;;;;;;5076062;28;20159;-83
2021/01/17 07:10:01;;;;;;;6.63;3.70;;;3.30;99.90;;;;;;5092221;28;20185;-84
2021/01/17 07:12:58;;;;;;;8.17;5.13;;;3.30;99.90;;;;;;5078190;28;20181;-83
2021/01/17 07:15:29;;;;;;;10.33;5.67;;;3.30;99.90;;;;;;5074584;28;20194;-85
2021/01/17 07:18:05;;;;;;;7.40;3.43;;;3.30;99.90;;;;;;5075742;28;20166;-84
2021/01/17 07:20:42;;;;;;;9.03;4.60;;;3.30;99.90;;;;;;5091244;28;20537;-84
2021/01/17 07:23:11;;;;;;;8.43;4.43;;;3.30;99.90;;;;;;5091623;28;20191;-83
2021/01/17 07:25:41;;;;;;;8.90;5.63;;;3.30;99.90;;;;;;5091237;28;20251;-85
2021/01/17 07:28:17;;;;;;;8.20;4.43;;;3.20;99.90;;;;;;5076567;28;20160;-83
2021/01/17 07:30:59;;;;;;;8.47;5.03;;;3.20;99.90;;;;;;5091818;28;20209;-83
2021/01/17 07:33:36;;;;;;;7.30;5.67;;;3.20;99.90;;;;;;5092844;28;20181;-83
2021/01/17 07:36:13;;;;;;;4.73;4.27;;;3.30;99.90;;;;;;5085255;28;20168;-84
2021/01/17 07:38:43;;;;;;;4.07;3.30;;;3.30;99.90;;;;;;5090958;28;20247;-85
2021/01/17 07:41:10;;;;;;;5.67;4.90;;;3.30;99.90;;;;;;5075612;28;20166;-85
2021/01/17 07:43:43;;;;;;;6.67;5.37;;;3.30;99.90;;;;;;5073636;28;20260;-84
2021/01/17 07:46:17;;;;;;;5.50;4.60;;;3.30;99.90;;;;;;5091640;28;20177;-84
2021/01/17 07:48:48;;;;;;;13.97;4.50;;;3.30;99.90;;;;;;5074879;28;20162;-84
2021/01/17 07:51:15;;;;;;;4.87;4.17;;;3.20;99.90;;;;;;5091515;28;20193;-84
2021/01/17 07:53:58;;;;;;;8.40;5.13;;;3.30;99.90;;;;;;5091096;28;20282;-86
2021/01/17 07:56:35;;;;;;;7.07;6.27;;;3.20;99.90;;;;;;5085219;28;20184;-85
2021/01/17 07:59:05;;;;;;;5.67;4.13;;;3.20;99.90;;;;;;5075429;28;20576;-85
2021/01/17 08:01:30;;;;;;;5.50;4.30;;;3.20;99.90;;;;;;5091551;28;20165;-85
2021/01/17 08:04:05;;;;;;;11.13;5.27;;;3.20;99.90;;;;;;5091284;28;20705;-80
2021/01/17 08:06:36;;;;;;;6.20;4.83;;;3.20;99.90;;;;;;5091538;28;20220;-83
2021/01/17 08:09:12;;;;;;;6.83;5.27;;;3.10;99.90;;;;;;5076629;28;20573;-83
2021/01/17 08:11:57;;;;;;;13.93;5.10;;;3.10;99.90;;;;;;5076070;28;20684;-86
2021/01/17 08:14:36;;;;;;;6.30;4.07;;;3.10;99.90;;;;;;5091026;28;20598;-81
2021/01/17 08:17:03;;;;;;;5.97;4.60;;;3.20;99.90;;;;;;5075546;28;20188;-80
2021/01/17 08:19:35;;;;;;;7.13;5.50;;;3.20;99.90;;;;;;5093249;28;20173;-83
2021/01/17 08:22:28;;;;;;;8.27;4.90;;;3.20;99.90;;;;;;5092457;28;20170;-84
2021/01/17 08:24:58;;;;;;;6.57;4.50;;;3.30;99.90;;;;;;5054206;28;20307;-81
2021/01/17 08:27:34;;;;;;;13.60;6.13;;;3.30;99.90;;;;;;5075491;28;20501;-82
2021/01/17 08:30:03;;;;;;;8.77;5.80;;;3.30;99.90;;;;;;5090815;28;20170;-82
2021/01/17 08:32:34;;;;;;;5.50;5.03;;;3.30;99.90;;;;;;5090845;28;20174;-83
2021/01/17 08:35:18;;;;;;;8.97;4.80;;;3.40;99.90;;;;;;5075901;28;20553;-82
2021/01/17 08:37:45;;;;;;;8.43;4.77;;;3.40;99.90;;;;;;5092657;28;20184;-85
2021/01/17 08:40:29;;;;;;;4.23;3.90;;;3.40;99.90;;;;;;5077325;28;20250;-85
2021/01/17 08:43:06;;;;;;;4.63;4.10;;;3.40;99.90;;;;;;5094034;28;20525;-86
2021/01/17 08:45:37;;;;;;;5.70;5.00;;;3.40;99.90;;;;;;5089477;28;20245;-85
2021/01/17 08:48:18;;;;;;;6.90;5.23;;;3.40;99.90;;;;;;5075025;28;20153;-81
2021/01/17 08:50:45;;;;;;;7.37;6.27;;;3.40;99.90;;;;;;5075900;28;20173;-84
2021/01/17 08:53:16;;;;;;;7.27;4.70;;;3.40;99.90;;;;;;5074743;28;20177;-87
2021/01/17 08:55:44;;;;;;;13.57;4.67;;;3.40;99.90;;;;;;5076627;28;20197;-84
2021/01/17 08:58:13;;;;;;;7.03;5.13;;;3.40;99.90;;;;;;5079001;28;20199;-84
2021/01/17 09:00:51;;;;;;;9.03;5.27;;;3.40;99.90;;;;;;5096751;28;20640;-83
2021/01/17 09:03:42;;;;;;;7.33;5.87;;;3.50;99.90;;;;;;5095231;28;20279;-78
2021/01/17 09:06:19;;;;;;;3.83;3.53;;;3.50;99.90;;;;;;5082527;28;20588;-80
2021/01/17 09:08:48;;;;;;;5.73;4.93;;;3.50;99.90;;;;;;5087759;28;20165;-80
2021/01/17 09:11:29;;;;;;;8.17;5.53;;;3.50;99.90;;;;;;5085691;28;20165;-81
2021/01/17 09:14:07;;;;;;;9.37;6.07;;;3.50;99.90;;;;;;5101481;28;20202;-79
2021/01/17 09:16:37;;;;;;;7.67;4.93;;;3.50;99.90;;;;;;5102628;28;20168;-79
2021/01/17 09:19:06;;;;;;;6.87;6.17;;;3.60;99.90;;;;;;5100946;28;20169;-79
2021/01/17 09:21:33;;;;;;;9.30;6.37;;;3.50;99.90;;;;;;5100997;28;20553;-80
2021/01/17 09:24:05;;;;;;;8.70;6.93;;;3.50;99.90;;;;;;5095725;28;20210;-81
2021/01/17 09:26:31;;;;;;;9.67;5.70;;;3.50;99.90;;;;;;5100610;28;20645;-81
2021/01/17 09:28:57;;;;;;;7.53;5.40;;;3.50;99.90;;;;;;5094650;28;20188;-84
2021/01/17 09:31:24;;;;;;;8.13;4.90;;;3.50;99.90;;;;;;5078868;28;20174;-84
2021/01/17 09:33:50;;;;;;;10.20;5.60;;;3.50;99.90;;;;;;5076568;28;20241;-84
2021/01/17 09:36:23;;;;;;;13.10;5.03;;;3.50;99.90;;;;;;5086922;28;20223;-84
2021/01/17 09:38:48;;;;;;;7.47;5.67;;;3.50;99.90;;;;;;5097427;28;20582;-83
2021/01/17 09:41:22;;;;;;;11.30;5.97;;;3.50;99.90;;;;;;5094503;28;20182;-84
2021/01/17 09:43:49;;;;;;;9.03;6.00;;;3.60;99.90;;;;;;5094230;28;20717;-84
2021/01/17 09:46:22;;;;;;;6.07;4.93;;;3.60;99.90;;;;;;5082164;28;20178;-84
2021/01/17 09:48:56;;;;;;;6.37;4.83;;;3.60;99.90;;;;;;5095176;28;20187;-84
2021/01/17 09:51:23;;;;;;;13.53;6.53;;;3.60;99.90;;;;;;5078293;28;20219;-84
2021/01/17 09:53:49;;;;;;;9.90;5.00;;;3.60;99.90;;;;;;5080681;28;20284;-84
2021/01/17 09:56:15;;;;;;;9.00;4.17;;;3.60;99.90;;;;;;5096059;28;20243;-85
2021/01/17 09:58:41;;;;;;;5.57;5.00;;;3.70;99.90;;;;;;5092689;28;20182;-83
2021/01/17 10:01:06;;;;;;;5.90;5.30;;;3.70;99.90;;;;;;5096614;28;20254;-84
2021/01/17 10:03:33;;;;;;;8.17;5.03;;;3.70;99.90;;;;;;5096532;28;20705;-85
2021/01/17 10:05:58;;;;;;;9.63;4.57;;;3.70;99.90;;;;;;5078040;28;20578;-83
2021/01/17 10:08:27;;;;;;;6.90;4.73;;;3.70;99.90;;;;;;5093908;28;20207;-83
2021/01/17 10:10:53;;;;;;;13.40;5.10;;;3.80;99.90;;;;;;5086124;28;20213;-83
2021/01/17 10:13:18;;;;;;;7.30;5.73;;;3.80;99.90;;;;;;5093081;28;20255;-84
2021/01/17 10:15:44;;;;;;;7.40;4.23;;;3.70;99.90;;;;;;5075919;28;20173;-87
2021/01/17 10:18:10;;;;;;;16.03;4.83;;;3.80;99.90;;;;;;5075786;28;20226;-86
2021/01/17 10:20:38;;;;;;;6.57;4.50;;;3.70;99.90;;;;;;5084839;28;20182;-80
2021/01/17 10:23:05;;;;;;;5.70;4.90;;;3.60;99.90;;;;;;5089643;28;20511;-80
2021/01/17 10:25:32;;;;;;;11.00;6.00;;;3.80;99.90;;;;;;5092434;28;20792;-84
2021/01/17 10:28:09;;;;;;;6.53;4.50;;;3.80;99.90;;;;;;5089488;28;20177;-84
2021/01/17 10:30:41;;;;;;;6.47;4.90;;;3.80;99.90;;;;;;5075701;28;20177;-84
2021/01/17 10:33:09;;;;;;;6.37;4.83;;;3.90;99.90;;;;;;5090091;28;20542;-83
2021/01/17 10:35:42;;;;;;;7.60;5.27;;;3.90;99.90;;;;;;5097455;28;20595;-85
2021/01/17 10:38:09;;;;;;;9.00;4.67;;;3.90;99.90;;;;;;5096301;28;20206;-85
2021/01/17 10:40:36;;;;;;;8.17;5.20;;;3.90;99.90;;;;;;5093429;28;20346;-86
2021/01/17 10:43:05;;;;;;;7.17;5.20;;;4.00;99.90;;;;;;5088552;28;20181;-86
2021/01/17 10:45:32;;;;;;;4.80;3.70;;;4.00;99.90;;;;;;5098478;28;20208;-86
2021/01/17 10:48:11;;;;;;;7.80;4.87;;;4.00;99.90;;;;;;5095194;28;20292;-88
2021/01/17 10:50:48;;;;;;;9.20;4.60;;;4.00;99.90;;;;;;5078012;28;20258;-85
2021/01/17 10:53:30;;;;;;;6.83;4.40;;;3.90;99.90;;;;;;5079174;28;20214;-85
2021/01/17 10:55:58;;;;;;;12.70;5.33;;;3.90;99.90;;;;;;5092064;28;20205;-87
2021/01/17 10:58:25;;;;;;;5.93;4.83;;;3.90;99.90;;;;;;5095512;28;20208;-87
2021/01/17 11:00:55;;;;;;;11.43;5.67;;;3.90;99.90;;;;;;5078076;28;20169;-85
2021/01/17 11:03:37;;;;;;;8.13;5.53;;;3.90;99.90;;;;;;5078437;28;20182;-85
2021/01/17 11:06:12;;;;;;;6.87;4.83;;;3.90;99.90;;;;;;5094247;28;20172;-86
2021/01/17 11:08:54;;;;;;;6.33;4.67;;;3.90;99.90;;;;;;5094285;28;20208;-86
2021/01/17 11:11:22;;;;;;;11.40;5.07;;;4.00;99.90;;;;;;5097359;28;20184;-87
2021/01/17 11:14:03;;;;;;;5.40;4.93;;;4.00;99.90;;;;;;5095773;28;20215;-86
2021/01/17 11:16:36;;;;;;;7.57;4.53;;;4.00;99.90;;;;;;5094220;28;20527;-86
2021/01/17 11:19:04;;;;;;;11.33;5.73;;;4.00;99.90;;;;;;5077027;28;20177;-85
2021/01/17 11:21:30;;;;;;;8.17;4.33;;;4.00;99.90;;;;;;5077595;28;20632;-83
2021/01/17 11:23:56;;;;;;;5.43;3.50;;;4.00;99.90;;;;;;5079925;28;20190;-86
2021/01/17 11:26:23;;;;;;;9.07;4.90;;;4.00;99.90;;;;;;5079799;28;20180;-87
2021/01/17 11:28:57;;;;;;;7.17;5.43;;;4.00;99.90;;;;;;5094481;28;20212;-83
2021/01/17 11:31:24;;;;;;;8.47;4.93;;;4.00;99.90;;;;;;5095175;28;20159;-84
2021/01/17 11:33:50;;;;;;;8.23;4.23;;;4.00;99.90;;;;;;5091417;28;20699;-85
2021/01/17 11:36:21;;;;;;;7.57;3.83;;;4.00;99.90;;;;;;5074232;28;20181;-85
2021/01/17 11:41:17;;;;;;;4.07;3.23;;;4.10;99.90;;;;;;5067494;28;20684;-81
2021/01/17 11:43:42;;;;;;;6.53;4.17;;;4.10;99.90;;;;;;5041385;28;20210;-83
2021/01/17 11:46:09;;;;;;;7.83;3.70;;;4.10;99.90;;;;;;5065262;28;20172;-83
2021/01/17 11:48:36;;;;;;;4.30;3.70;;;4.10;99.90;;;;;;5068002;28;20201;-83
2021/01/17 11:51:03;;;;;;;6.13;3.53;;;4.10;99.90;;;;;;5058872;28;20179;-82
2021/01/17 11:53:30;;;;;;;5.50;3.90;;;4.20;99.90;;;;;;5054093;28;20245;-83
2021/01/17 11:55:56;;;;;;;4.93;3.97;;;4.10;99.90;;;;;;5054779;28;20578;-83
2021/01/17 11:58:22;;;;;;;7.13;5.30;;;4.10;99.90;;;;;;5054458;28;20550;-82
2021/01/17 12:01:00;;;;;;;5.17;4.67;;;4.20;99.90;;;;;;5054736;28;20656;-85
2021/01/17 12:04:59;;;;;;;6.07;4.03;;;4.20;99.90;;;;;;5114405;27;20477;-83
2021/01/17 12:07:25;;;;;;;10.97;3.93;;;4.20;99.90;;;;;;5112134;28;20183;-81
2021/01/17 12:10:11;;;;;;;11.60;4.83;;;4.20;99.90;;;;;;5109488;28;20240;-82
2021/01/17 12:12:38;;;;;;;5.73;4.37;;;4.20;99.90;;;;;;5094187;28;20603;-81
2021/01/17 12:15:06;;;;;;;10.90;5.13;;;4.20;99.90;;;;;;5101764;28;20227;-82
2021/01/17 12:17:32;;;;;;;11.13;5.37;;;4.30;99.90;;;;;;5112196;28;20170;-83
2021/01/17 12:19:57;;;;;;;10.70;4.50;;;4.30;99.90;;;;;;5112038;28;20170;-82
2021/01/17 12:22:23;;;;;;;8.13;5.10;;;4.30;99.90;;;;;;5112873;28;20215;-82
2021/01/17 12:24:48;;;;;;;4.97;4.23;;;4.30;99.90;;;;;;5112421;28;20247;-83
2021/01/17 12:27:14;;;;;;;6.57;4.53;;;4.30;99.90;;;;;;5098350;28;20189;-82
2021/01/17 12:29:39;;;;;;;7.00;5.00;;;4.30;99.90;;;;;;5092912;28;20530;-83
2021/01/17 12:32:05;;;;;;;9.33;5.07;;;4.40;99.90;;;;;;5093816;28;20170;-82
2021/01/17 12:34:31;;;;;;;4.40;4.00;;;4.30;99.90;;;;;;5094839;28;20200;-83
2021/01/17 12:36:56;;;;;;;5.27;4.83;;;4.30;99.90;;;;;;5093397;28;20245;-83
2021/01/17 12:39:22;;;;;;;8.47;5.13;;;4.40;99.90;;;;;;5095080;28;20178;-84
2021/01/17 12:41:51;;;;;;;15.47;5.60;;;4.20;99.90;;;;;;5093130;28;20182;-82
2021/01/17 12:44:18;;;;;;;5.17;4.03;;;4.30;99.90;;;;;;5105344;28;20217;-82
2021/01/17 12:46:45;;;;;;;14.07;6.07;;;4.20;99.90;;;;;;5090091;28;20227;-82
2021/01/17 12:49:15;;;;;;;8.40;4.97;;;4.20;99.90;;;;;;5089649;28;20173;-82
2021/01/17 12:51:41;;;;;;;4.50;3.77;;;4.10;99.90;;;;;;5091678;28;20166;-82
2021/01/17 12:54:07;;;;;;;12.53;5.27;;;4.20;99.90;;;;;;5107290;28;20193;-82
2021/01/17 12:56:32;;;;;;;5.43;4.90;;;4.20;99.90;;;;;;5091182;28;20198;-82
2021/01/17 12:58:58;;;;;;;10.20;5.73;;;4.10;99.90;;;;;;5090931;28;20637;-84
2021/01/17 13:01:24;;;;;;;8.73;6.07;;;4.10;99.90;;;;;;5109521;28;20173;-82
2021/01/17 13:03:49;;;;;;;7.90;5.00;;;4.10;99.90;;;;;;5097687;28;20243;-82
2021/01/17 13:06:15;;;;;;;7.30;5.77;;;4.10;99.90;;;;;;5106788;28;20174;-82
2021/01/17 13:08:42;;;;;;;7.60;5.30;;;4.10;99.90;;;;;;5090007;28;20205;-82
2021/01/17 13:11:10;;;;;;;14.90;7.53;;;4.10;99.90;;;;;;5099730;28;20173;-83
2021/01/17 13:13:36;;;;;;;11.27;7.07;;;4.10;99.90;;;;;;5103709;28;20191;-82
2021/01/17 13:16:07;;;;;;;9.90;5.17;;;4.10;99.90;;;;;;5097820;28;20170;-82
2021/01/17 13:18:33;;;;;;;14.07;6.40;;;4.20;99.90;;;;;;5096616;28;20588;-82
2021/01/17 13:21:02;;;;;;;10.30;6.23;;;4.20;99.90;;;;;;5096575;28;20174;-82
2021/01/17 13:23:28;;;;;;;15.90;8.07;;;4.20;99.90;;;;;;5079526;28;20665;-83
2021/01/17 13:25:55;;;;;;;12.83;5.73;;;4.20;99.90;;;;;;5083026;28;20174;-84
2021/01/17 13:28:24;;;;;;;11.93;6.40;;;4.20;99.90;;;;;;5095027;28;20178;-86
2021/01/17 13:30:50;;;;;;;9.53;6.87;;;4.20;99.90;;;;;;5096342;28;20536;-82
2021/01/17 13:33:16;;;;;;;12.03;6.93;;;4.20;99.90;;;;;;5076439;28;20175;-83
2021/01/17 13:35:48;;;;;;;19.60;6.37;;;4.20;99.90;;;;;;5075931;28;20191;-83
2021/01/17 13:38:14;;;;;;;18.60;7.03;;;4.30;99.90;;;;;;5075893;28;20190;-82
2021/01/17 13:40:41;;;;;;;16.40;8.30;;;4.30;99.90;;;;;;5075515;28;20175;-81
2021/01/17 13:43:08;;;;;;;11.57;7.77;;;4.30;99.90;;;;;;5087557;28;20221;-83
2021/01/17 13:45:34;;;;;;;13.53;7.60;;;4.30;99.90;;;;;;5079333;28;20218;-84